sensor_id;sensor_type;location;lat;lon;timestamp;P1;durP1;ratioP1;P2;durP2;ratioP2
46701;SDS011;33449;50.712;7.124;2023-03-14T00:01:43;5.25;;;1.70;;
46701;SDS011;33449;50.712;7.124;2023-03-14T00:06:56;2.33;;;0.90;;
46701;SDS011;33449;50.712;7.124;2023-03-14T00:09:22;9.23;;;1.05;;
46701;SDS011;33449;50.712;7.124;2023-03-14T00:11:49;4.00;;;1.08;;
46701;SDS011;33449;50.712;7.124;2023-03-14T00:14:17;9.60;;;2.58;;
46701;SDS011;33449;50.712;7.124;2023-03-14T00:16:45;2.85;;;1.08;;
46701;SDS011;33449;50.712;7.124;2023-03-14T00:21:46;6.90;;;3.13;;
46701;SDS011;33449;50.712;7.124;2023-03-14T00:24:13;3.88;;;1.55;;
46701;SDS011;33449;50.712;7.124;2023-03-14T00:26:40;3.30;;;1.20;;
46701;SDS011;33449;50.712;7.124;2023-03-14T00:29:07;4.38;;;1.48;;
46701;SDS011;33449;50.712;7.124;2023-03-14T00:31:33;3.33;;;1.38;;
46701;SDS011;33449;50.712;7.124;2023-03-14T00:36:51;6.22;;;1.33;;
46701;SDS011;33449;50.712;7.124;2023-03-14T00:39:18;4.28;;;1.13;;
46701;SDS011;33449;50.712;7.124;2023-03-14T00:41:45;12.60;;;1.95;;
46701;SDS011;33449;50.712;7.124;2023-03-14T00:44:11;5.15;;;2.10;;
46701;SDS011;33449;50.712;7.124;2023-03-14T00:46:38;10.40;;;1.40;;
46701;SDS011;33449;50.712;7.124;2023-03-14T00:51:36;4.15;;;1.38;;
46701;SDS011;33449;50.712;7.124;2023-03-14T00:54:03;3.28;;;0.90;;
46701;SDS011;33449;50.712;7.124;2023-03-14T00:56:30;5.38;;;1.58;;
46701;SDS011;33449;50.712;7.124;2023-03-14T00:58:56;3.53;;;1.27;;
46701;SDS011;33449;50.712;7.124;2023-03-14T01:01:23;5.85;;;1.27;;
46701;SDS011;33449;50.712;7.124;2023-03-14T01:06:37;7.07;;;2.35;;
46701;SDS011;33449;50.712;7.124;2023-03-14T01:09:05;4.82;;;2.17;;
46701;SDS011;33449;50.712;7.124;2023-03-14T01:11:33;10.18;;;1.63;;
46701;SDS011;33449;50.712;7.124;2023-03-14T01:14:01;5.60;;;1.42;;
46701;SDS011;33449;50.712;7.124;2023-03-14T01:16:29;1.50;;;0.90;;
46701;SDS011;33449;50.712;7.124;2023-03-14T01:21:33;5.53;;;0.98;;
46701;SDS011;33449;50.712;7.124;2023-03-14T01:24:01;6.83;;;1.33;;
46701;SDS011;33449;50.712;7.124;2023-03-14T01:26:29;3.88;;;1.52;;
46701;SDS011;33449;50.712;7.124;2023-03-14T01:31:32;7.68;;;1.60;;
46701;SDS011;33449;50.712;7.124;2023-03-14T01:36:32;5.43;;;1.42;;
46701;SDS011;33449;50.712;7.124;2023-03-14T01:38:59;5.15;;;1.13;;
46701;SDS011;33449;50.712;7.124;2023-03-14T01:41:26;5.05;;;1.38;;
46701;SDS011;33449;50.712;7.124;2023-03-14T01:43:53;6.47;;;1.38;;
46701;SDS011;33449;50.712;7.124;2023-03-14T01:46:41;3.92;;;0.95;;
46701;SDS011;33449;50.712;7.124;2023-03-14T01:49:16;5.57;;;1.50;;
46701;SDS011;33449;50.712;7.124;2023-03-14T01:51:55;12.13;;;1.58;;
46701;SDS011;33449;50.712;7.124;2023-03-14T01:54:27;6.43;;;1.33;;
46701;SDS011;33449;50.712;7.124;2023-03-14T01:57:01;10.02;;;1.75;;
46701;SDS011;33449;50.712;7.124;2023-03-14T01:59:30;5.18;;;0.93;;
46701;SDS011;33449;50.712;7.124;2023-03-14T02:01:57;11.63;;;1.83;;
46701;SDS011;33449;50.712;7.124;2023-03-14T02:04:26;8.95;;;1.50;;
46701;SDS011;33449;50.712;7.124;2023-03-14T02:07:00;7.13;;;1.90;;
46701;SDS011;33449;50.712;7.124;2023-03-14T02:09:39;10.43;;;1.33;;
46701;SDS011;33449;50.712;7.124;2023-03-14T02:12:07;9.00;;;2.25;;
46701;SDS011;33449;50.712;7.124;2023-03-14T02:14:35;9.02;;;1.83;;
46701;SDS011;33449;50.712;7.124;2023-03-14T02:17:03;4.25;;;0.82;;
46701;SDS011;33449;50.712;7.124;2023-03-14T02:22:13;6.07;;;1.58;;
46701;SDS011;33449;50.712;7.124;2023-03-14T02:24:49;5.10;;;1.42;;
46701;SDS011;33449;50.712;7.124;2023-03-14T02:27:29;3.67;;;1.00;;
46701;SDS011;33449;50.712;7.124;2023-03-14T02:30:14;12.48;;;2.47;;
46701;SDS011;33449;50.712;7.124;2023-03-14T02:32:46;9.70;;;1.63;;
46701;SDS011;33449;50.712;7.124;2023-03-14T02:35:16;6.38;;;1.77;;
46701;SDS011;33449;50.712;7.124;2023-03-14T02:38:02;10.63;;;2.00;;
46701;SDS011;33449;50.712;7.124;2023-03-14T02:40:33;7.65;;;1.30;;
46701;SDS011;33449;50.712;7.124;2023-03-14T02:43:00;5.20;;;1.33;;
46701;SDS011;33449;50.712;7.124;2023-03-14T02:48:22;8.30;;;1.80;;
46701;SDS011;33449;50.712;7.124;2023-03-14T02:51:09;6.78;;;1.83;;
46701;SDS011;33449;50.712;7.124;2023-03-14T02:53:39;9.02;;;1.77;;
46701;SDS011;33449;50.712;7.124;2023-03-14T02:56:07;7.38;;;1.88;;
46701;SDS011;33449;50.712;7.124;2023-03-14T02:58:34;6.63;;;2.13;;
46701;SDS011;33449;50.712;7.124;2023-03-14T03:01:02;6.22;;;1.77;;
46701;SDS011;33449;50.712;7.124;2023-03-14T03:06:06;8.68;;;2.17;;
46701;SDS011;33449;50.712;7.124;2023-03-14T03:08:33;10.10;;;1.50;;
46701;SDS011;33449;50.712;7.124;2023-03-14T03:10:59;5.80;;;1.52;;
46701;SDS011;33449;50.712;7.124;2023-03-14T03:13:28;9.25;;;1.73;;
46701;SDS011;33449;50.712;7.124;2023-03-14T03:15:54;10.52;;;2.13;;
46701;SDS011;33449;50.712;7.124;2023-03-14T03:21:07;8.02;;;2.00;;
46701;SDS011;33449;50.712;7.124;2023-03-14T03:23:35;6.03;;;1.60;;
46701;SDS011;33449;50.712;7.124;2023-03-14T03:26:02;13.38;;;2.13;;
46701;SDS011;33449;50.712;7.124;2023-03-14T03:28:29;8.40;;;2.70;;
46701;SDS011;33449;50.712;7.124;2023-03-14T03:30:55;5.45;;;1.77;;
46701;SDS011;33449;50.712;7.124;2023-03-14T03:35:59;7.45;;;1.50;;
46701;SDS011;33449;50.712;7.124;2023-03-14T03:38:26;13.35;;;1.75;;
46701;SDS011;33449;50.712;7.124;2023-03-14T03:40:52;4.78;;;1.80;;
46701;SDS011;33449;50.712;7.124;2023-03-14T03:43:19;11.65;;;2.00;;
46701;SDS011;33449;50.712;7.124;2023-03-14T03:45:46;11.32;;;1.80;;
46701;SDS011;33449;50.712;7.124;2023-03-14T03:48:12;6.50;;;1.27;;
46701;SDS011;33449;50.712;7.124;2023-03-14T03:56:22;11.23;;;2.10;;
46701;SDS011;33449;50.712;7.124;2023-03-14T03:58:48;2.45;;;1.10;;
46701;SDS011;33449;50.712;7.124;2023-03-14T04:01:15;7.15;;;1.38;;
46701;SDS011;33449;50.712;7.124;2023-03-14T04:03:42;5.65;;;1.23;;
46701;SDS011;33449;50.712;7.124;2023-03-14T04:06:10;12.10;;;1.80;;
46701;SDS011;33449;50.712;7.124;2023-03-14T04:08:56;6.35;;;1.05;;
46701;SDS011;33449;50.712;7.124;2023-03-14T04:11:23;1.98;;;1.00;;
46701;SDS011;33449;50.712;7.124;2023-03-14T04:13:50;4.32;;;0.88;;
46701;SDS011;33449;50.712;7.124;2023-03-14T04:16:19;4.50;;;1.15;;
46701;SDS011;33449;50.712;7.124;2023-03-14T04:18:47;6.72;;;1.40;;
46701;SDS011;33449;50.712;7.124;2023-03-14T04:23:50;2.17;;;0.95;;
46701;SDS011;33449;50.712;7.124;2023-03-14T04:26:18;5.15;;;0.80;;
46701;SDS011;33449;50.712;7.124;2023-03-14T04:28:45;5.47;;;0.95;;
46701;SDS011;33449;50.712;7.124;2023-03-14T04:31:15;3.13;;;1.00;;
46701;SDS011;33449;50.712;7.124;2023-03-14T04:33:46;5.40;;;1.45;;
46701;SDS011;33449;50.712;7.124;2023-03-14T04:41:45;2.42;;;0.60;;
46701;SDS011;33449;50.712;7.124;2023-03-14T04:44:12;2.33;;;0.57;;
46701;SDS011;33449;50.712;7.124;2023-03-14T04:46:39;4.53;;;0.52;;
46701;SDS011;33449;50.712;7.124;2023-03-14T04:49:05;1.95;;;0.60;;
46701;SDS011;33449;50.712;7.124;2023-03-14T04:51:32;1.15;;;0.40;;
46701;SDS011;33449;50.712;7.124;2023-03-14T04:56:48;0.80;;;0.43;;
46701;SDS011;33449;50.712;7.124;2023-03-14T04:59:15;6.50;;;0.80;;
46701;SDS011;33449;50.712;7.124;2023-03-14T05:01:41;2.60;;;0.80;;
46701;SDS011;33449;50.712;7.124;2023-03-14T05:04:08;3.45;;;0.60;;
46701;SDS011;33449;50.712;7.124;2023-03-14T05:06:35;1.20;;;0.50;;
46701;SDS011;33449;50.712;7.124;2023-03-14T05:11:41;7.57;;;0.83;;
46701;SDS011;33449;50.712;7.124;2023-03-14T05:14:08;1.08;;;0.65;;
46701;SDS011;33449;50.712;7.124;2023-03-14T05:16:34;1.20;;;0.63;;
46701;SDS011;33449;50.712;7.124;2023-03-14T05:19:01;1.10;;;0.47;;
46701;SDS011;33449;50.712;7.124;2023-03-14T05:21:28;0.70;;;0.30;;
46701;SDS011;33449;50.712;7.124;2023-03-14T05:26:41;0.20;;;0.20;;
46701;SDS011;33449;50.712;7.124;2023-03-14T05:29:08;1.13;;;0.40;;
46701;SDS011;33449;50.712;7.124;2023-03-14T05:31:34;1.33;;;0.70;;
46701;SDS011;33449;50.712;7.124;2023-03-14T05:34:01;0.98;;;0.50;;
46701;SDS011;33449;50.712;7.124;2023-03-14T05:46:52;0.60;;;0.60;;
46701;SDS011;33449;50.712;7.124;2023-03-14T05:49:19;2.47;;;0.70;;
46701;SDS011;33449;50.712;7.124;2023-03-14T05:51:46;0.15;;;0.15;;
46701;SDS011;33449;50.712;7.124;2023-03-14T05:54:12;0.35;;;0.30;;
46701;SDS011;33449;50.712;7.124;2023-03-14T05:56:39;3.20;;;0.30;;
46701;SDS011;33449;50.712;7.124;2023-03-14T05:59:06;0.25;;;0.22;;
46701;SDS011;33449;50.712;7.124;2023-03-14T06:01:35;4.00;;;0.30;;
46701;SDS011;33449;50.712;7.124;2023-03-14T06:04:01;0.52;;;0.30;;
46701;SDS011;33449;50.712;7.124;2023-03-14T06:11:27;0.57;;;0.38;;
46701;SDS011;33449;50.712;7.124;2023-03-14T06:13:54;0.20;;;0.20;;
46701;SDS011;33449;50.712;7.124;2023-03-14T06:16:20;0.70;;;0.40;;
46701;SDS011;33449;50.712;7.124;2023-03-14T06:18:47;0.70;;;0.30;;
46701;SDS011;33449;50.712;7.124;2023-03-14T06:21:15;1.25;;;0.30;;
46701;SDS011;33449;50.712;7.124;2023-03-14T06:26:19;0.20;;;0.20;;
46701;SDS011;33449;50.712;7.124;2023-03-14T06:28:46;0.40;;;0.22;;
46701;SDS011;33449;50.712;7.124;2023-03-14T06:31:13;1.08;;;0.30;;
46701;SDS011;33449;50.712;7.124;2023-03-14T06:33:39;0.20;;;0.20;;
46701;SDS011;33449;50.712;7.124;2023-03-14T06:36:06;1.55;;;0.30;;
46701;SDS011;33449;50.712;7.124;2023-03-14T06:38:33;0.25;;;0.25;;
46701;SDS011;33449;50.712;7.124;2023-03-14T06:41:07;0.20;;;0.20;;
46701;SDS011;33449;50.712;7.124;2023-03-14T06:43:35;0.20;;;0.20;;
46701;SDS011;33449;50.712;7.124;2023-03-14T06:46:02;0.25;;;0.25;;
46701;SDS011;33449;50.712;7.124;2023-03-14T06:48:29;0.85;;;0.40;;
46701;SDS011;33449;50.712;7.124;2023-03-14T06:50:56;0.57;;;0.20;;
46701;SDS011;33449;50.712;7.124;2023-03-14T06:53:23;0.20;;;0.20;;
46701;SDS011;33449;50.712;7.124;2023-03-14T06:56:09;0.77;;;0.30;;
46701;SDS011;33449;50.712;7.124;2023-03-14T06:58:37;0.20;;;0.20;;
46701;SDS011;33449;50.712;7.124;2023-03-14T07:06:19;0.20;;;0.20;;
46701;SDS011;33449;50.712;7.124;2023-03-14T07:08:46;1.75;;;0.40;;
46701;SDS011;33449;50.712;7.124;2023-03-14T07:11:13;2.08;;;0.20;;
46701;SDS011;33449;50.712;7.124;2023-03-14T07:13:40;0.28;;;0.28;;
46701;SDS011;33449;50.712;7.124;2023-03-14T07:16:07;0.30;;;0.20;;
46701;SDS011;33449;50.712;7.124;2023-03-14T07:18:36;0.35;;;0.28;;
46701;SDS011;33449;50.712;7.124;2023-03-14T07:21:04;0.30;;;0.20;;
46701;SDS011;33449;50.712;7.124;2023-03-14T07:26:11;0.10;;;0.10;;
46701;SDS011;33449;50.712;7.124;2023-03-14T07:28:39;0.20;;;0.20;;
46701;SDS011;33449;50.712;7.124;2023-03-14T07:31:06;0.20;;;0.20;;
46701;SDS011;33449;50.712;7.124;2023-03-14T07:33:33;0.35;;;0.30;;
46701;SDS011;33449;50.712;7.124;2023-03-14T07:36:04;0.20;;;0.20;;
46701;SDS011;33449;50.712;7.124;2023-03-14T07:41:07;0.10;;;0.10;;
46701;SDS011;33449;50.712;7.124;2023-03-14T07:43:36;0.10;;;0.10;;
46701;SDS011;33449;50.712;7.124;2023-03-14T07:46:03;0.20;;;0.20;;
46701;SDS011;33449;50.712;7.124;2023-03-14T07:48:30;0.13;;;0.13;;
46701;SDS011;33449;50.712;7.124;2023-03-14T07:50:57;0.80;;;0.30;;
46701;SDS011;33449;50.712;7.124;2023-03-14T08:01:29;0.47;;;0.30;;
46701;SDS011;33449;50.712;7.124;2023-03-14T08:03:56;0.20;;;0.20;;
46701;SDS011;33449;50.712;7.124;2023-03-14T08:06:37;1.67;;;0.30;;
46701;SDS011;33449;50.712;7.124;2023-03-14T08:09:19;0.38;;;0.25;;
46701;SDS011;33449;50.712;7.124;2023-03-14T08:15:42;0.60;;;0.25;;
46701;SDS011;33449;50.712;7.124;2023-03-14T08:21:04;0.20;;;0.20;;
46701;SDS011;33449;50.712;7.124;2023-03-14T08:40:29;0.55;;;0.20;;
46701;SDS011;33449;50.712;7.124;2023-03-14T08:43:03;0.20;;;0.20;;
46701;SDS011;33449;50.712;7.124;2023-03-14T08:45:33;0.57;;;0.20;;
46701;SDS011;33449;50.712;7.124;2023-03-14T08:48:15;0.20;;;0.20;;
46701;SDS011;33449;50.712;7.124;2023-03-14T08:50:51;0.10;;;0.10;;
46701;SDS011;33449;50.712;7.124;2023-03-14T08:53:22;0.63;;;0.20;;
46701;SDS011;33449;50.712;7.124;2023-03-14T08:55:55;3.03;;;0.20;;
46701;SDS011;33449;50.712;7.124;2023-03-14T08:58:40;0.63;;;0.30;;
46701;SDS011;33449;50.712;7.124;2023-03-14T09:01:27;0.17;;;0.13;;
46701;SDS011;33449;50.712;7.124;2023-03-14T09:09:25;0.20;;;0.20;;
46701;SDS011;33449;50.712;7.124;2023-03-14T09:12:09;0.28;;;0.20;;
46701;SDS011;33449;50.712;7.124;2023-03-14T09:14:49;1.30;;;0.30;;
46701;SDS011;33449;50.712;7.124;2023-03-14T09:28:10;0.20;;;0.20;;
46701;SDS011;33449;50.712;7.124;2023-03-14T09:30:37;0.30;;;0.17;;
46701;SDS011;33449;50.712;7.124;2023-03-14T09:33:04;0.60;;;0.20;;
46701;SDS011;33449;50.712;7.124;2023-03-14T09:35:30;2.10;;;0.28;;
46701;SDS011;33449;50.712;7.124;2023-03-14T09:40:50;3.55;;;0.85;;
46701;SDS011;33449;50.712;7.124;2023-03-14T09:43:16;0.88;;;0.88;;
46701;SDS011;33449;50.712;7.124;2023-03-14T09:45:43;0.55;;;0.40;;
46701;SDS011;33449;50.712;7.124;2023-03-14T09:48:19;2.20;;;1.00;;
46701;SDS011;33449;50.712;7.124;2023-03-14T09:50:51;0.55;;;0.40;;
46701;SDS011;33449;50.712;7.124;2023-03-14T09:53:20;0.98;;;0.40;;
46701;SDS011;33449;50.712;7.124;2023-03-14T09:58:40;2.17;;;0.52;;
46701;SDS011;33449;50.712;7.124;2023-03-14T10:01:07;0.30;;;0.30;;
46701;SDS011;33449;50.712;7.124;2023-03-14T10:03:37;0.77;;;0.68;;
46701;SDS011;33449;50.712;7.124;2023-03-14T10:06:09;2.65;;;0.80;;
46701;SDS011;33449;50.712;7.124;2023-03-14T10:13:36;2.15;;;1.02;;
46701;SDS011;33449;50.712;7.124;2023-03-14T10:16:13;1.02;;;0.77;;
46701;SDS011;33449;50.712;7.124;2023-03-14T10:18:43;1.30;;;0.60;;
46701;SDS011;33449;50.712;7.124;2023-03-14T10:21:27;1.70;;;0.60;;
46701;SDS011;33449;50.712;7.124;2023-03-14T10:23:54;1.85;;;0.88;;
46701;SDS011;33449;50.712;7.124;2023-03-14T10:26:33;0.50;;;0.50;;
46701;SDS011;33449;50.712;7.124;2023-03-14T10:34:38;0.70;;;0.47;;
46701;SDS011;33449;50.712;7.124;2023-03-14T10:37:06;0.70;;;0.70;;
46701;SDS011;33449;50.712;7.124;2023-03-14T10:42:09;3.90;;;0.93;;
46701;SDS011;33449;50.712;7.124;2023-03-14T10:44:41;1.92;;;1.13;;
46701;SDS011;33449;50.712;7.124;2023-03-14T10:47:14;2.08;;;0.73;;
46701;SDS011;33449;50.712;7.124;2023-03-14T10:52:28;0.77;;;0.70;;
46701;SDS011;33449;50.712;7.124;2023-03-14T10:57:55;0.90;;;0.50;;
46701;SDS011;33449;50.712;7.124;2023-03-14T11:00:22;2.70;;;0.73;;
46701;SDS011;33449;50.712;7.124;2023-03-14T11:10:29;1.58;;;0.80;;
46701;SDS011;33449;50.712;7.124;2023-03-14T11:15:34;2.42;;;1.00;;
46701;SDS011;33449;50.712;7.124;2023-03-14T11:20:46;2.10;;;1.80;;
46701;SDS011;33449;50.712;7.124;2023-03-14T11:23:17;1.95;;;1.00;;
46701;SDS011;33449;50.712;7.124;2023-03-14T11:33:50;1.13;;;0.80;;
46701;SDS011;33449;50.712;7.124;2023-03-14T11:36:33;1.63;;;0.90;;
46701;SDS011;33449;50.712;7.124;2023-03-14T11:39:07;0.95;;;0.65;;
46701;SDS011;33449;50.712;7.124;2023-03-14T11:41:37;1.40;;;0.90;;
46701;SDS011;33449;50.712;7.124;2023-03-14T11:44:22;1.52;;;1.02;;
46701;SDS011;33449;50.712;7.124;2023-03-14T11:46:53;3.97;;;1.10;;
46701;SDS011;33449;50.712;7.124;2023-03-14T12:00:41;1.92;;;1.23;;
46701;SDS011;33449;50.712;7.124;2023-03-14T12:03:23;2.60;;;1.38;;
46701;SDS011;33449;50.712;7.124;2023-03-14T12:13:53;3.60;;;1.38;;
46701;SDS011;33449;50.712;7.124;2023-03-14T12:19:21;1.83;;;0.70;;
46701;SDS011;33449;50.712;7.124;2023-03-14T12:36:18;1.63;;;0.63;;
46701;SDS011;33449;50.712;7.124;2023-03-14T12:39:07;0.70;;;0.47;;
46701;SDS011;33449;50.712;7.124;2023-03-14T12:41:41;1.90;;;0.60;;
46701;SDS011;33449;50.712;7.124;2023-03-14T12:44:37;0.73;;;0.60;;
46701;SDS011;33449;50.712;7.124;2023-03-14T12:47:01;2.60;;;0.80;;
46701;SDS011;33449;50.712;7.124;2023-03-14T12:49:41;2.45;;;0.80;;
46701;SDS011;33449;50.712;7.124;2023-03-14T12:52:15;1.30;;;0.88;;
46701;SDS011;33449;50.712;7.124;2023-03-14T12:55:04;4.32;;;1.25;;
46701;SDS011;33449;50.712;7.124;2023-03-14T12:57:45;3.85;;;1.88;;
46701;SDS011;33449;50.712;7.124;2023-03-14T13:00:18;2.55;;;1.25;;
46701;SDS011;33449;50.712;7.124;2023-03-14T13:02:46;6.85;;;1.88;;
46701;SDS011;33449;50.712;7.124;2023-03-14T13:05:18;3.22;;;1.35;;
46701;SDS011;33449;50.712;7.124;2023-03-14T13:13:07;2.75;;;1.75;;
46701;SDS011;33449;50.712;7.124;2023-03-14T13:16:01;3.72;;;1.70;;
46701;SDS011;33449;50.712;7.124;2023-03-14T13:21:15;4.97;;;2.45;;
46701;SDS011;33449;50.712;7.124;2023-03-14T13:26:39;6.80;;;2.50;;
46701;SDS011;33449;50.712;7.124;2023-03-14T13:31:36;8.05;;;1.92;;
46701;SDS011;33449;50.712;7.124;2023-03-14T13:34:06;4.15;;;1.60;;
46701;SDS011;33449;50.712;7.124;2023-03-14T13:36:57;2.50;;;1.30;;
46701;SDS011;33449;50.712;7.124;2023-03-14T13:39:24;7.45;;;1.73;;
46701;SDS011;33449;50.712;7.124;2023-03-14T13:41:55;10.25;;;3.22;;
46701;SDS011;33449;50.712;7.124;2023-03-14T13:46:51;6.38;;;1.50;;
46701;SDS011;33449;50.712;7.124;2023-03-14T13:51:49;3.45;;;1.42;;
46701;SDS011;33449;50.712;7.124;2023-03-14T13:54:18;5.32;;;1.38;;
46701;SDS011;33449;50.712;7.124;2023-03-14T13:56:46;3.42;;;1.40;;
46701;SDS011;33449;50.712;7.124;2023-03-14T13:59:26;5.13;;;2.20;;
46701;SDS011;33449;50.712;7.124;2023-03-14T14:04:26;8.50;;;2.10;;
46701;SDS011;33449;50.712;7.124;2023-03-14T14:06:56;5.13;;;2.17;;
46701;SDS011;33449;50.712;7.124;2023-03-14T14:09:25;4.13;;;2.10;;
46701;SDS011;33449;50.712;7.124;2023-03-14T14:11:56;5.32;;;2.10;;
46701;SDS011;33449;50.712;7.124;2023-03-14T14:14:46;6.45;;;1.65;;
46701;SDS011;33449;50.712;7.124;2023-03-14T14:17:15;3.10;;;1.58;;
46701;SDS011;33449;50.712;7.124;2023-03-14T14:19:43;3.95;;;1.75;;
46701;SDS011;33449;50.712;7.124;2023-03-14T14:24:41;6.72;;;1.90;;
46701;SDS011;33449;50.712;7.124;2023-03-14T14:27:16;6.50;;;1.67;;
46701;SDS011;33449;50.712;7.124;2023-03-14T14:29:44;6.50;;;1.58;;
46701;SDS011;33449;50.712;7.124;2023-03-14T14:32:13;10.18;;;2.30;;
46701;SDS011;33449;50.712;7.124;2023-03-14T14:34:42;6.43;;;1.55;;
46701;SDS011;33449;50.712;7.124;2023-03-14T14:42:35;12.93;;;2.63;;
46701;SDS011;33449;50.712;7.124;2023-03-14T14:45:06;9.60;;;1.90;;
46701;SDS011;33449;50.712;7.124;2023-03-14T14:47:34;18.67;;;3.13;;
46701;SDS011;33449;50.712;7.124;2023-03-14T14:50:03;12.63;;;1.98;;
46701;SDS011;33449;50.712;7.124;2023-03-14T14:52:39;12.43;;;2.50;;
46701;SDS011;33449;50.712;7.124;2023-03-14T14:57:38;14.60;;;2.20;;
46701;SDS011;33449;50.712;7.124;2023-03-14T15:00:08;17.80;;;3.75;;
46701;SDS011;33449;50.712;7.124;2023-03-14T15:02:40;21.30;;;3.17;;
46701;SDS011;33449;50.712;7.124;2023-03-14T15:05:13;30.48;;;3.35;;
46701;SDS011;33449;50.712;7.124;2023-03-14T15:07:42;17.67;;;2.85;;
46701;SDS011;33449;50.712;7.124;2023-03-14T15:10:11;9.85;;;2.00;;
46701;SDS011;33449;50.712;7.124;2023-03-14T15:12:39;11.55;;;2.30;;
46701;SDS011;33449;50.712;7.124;2023-03-14T15:15:07;21.60;;;3.88;;
46701;SDS011;33449;50.712;7.124;2023-03-14T15:17:35;11.10;;;2.75;;
46701;SDS011;33449;50.712;7.124;2023-03-14T15:20:03;9.65;;;2.50;;
46701;SDS011;33449;50.712;7.124;2023-03-14T15:22:33;10.98;;;2.90;;
46701;SDS011;33449;50.712;7.124;2023-03-14T15:30:31;12.13;;;2.72;;
46701;SDS011;33449;50.712;7.124;2023-03-14T15:32:58;9.40;;;2.35;;
46701;SDS011;33449;50.712;7.124;2023-03-14T15:35:25;12.13;;;3.13;;
46701;SDS011;33449;50.712;7.124;2023-03-14T15:37:52;11.05;;;2.83;;
46701;SDS011;33449;50.712;7.124;2023-03-14T15:40:20;15.57;;;4.25;;
46701;SDS011;33449;50.712;7.124;2023-03-14T15:42:50;11.93;;;1.67;;
46701;SDS011;33449;50.712;7.124;2023-03-14T15:45:18;13.05;;;2.63;;
46701;SDS011;33449;50.712;7.124;2023-03-14T15:47:45;7.00;;;1.88;;
46701;SDS011;33449;50.712;7.124;2023-03-14T15:50:12;9.25;;;2.97;;
46701;SDS011;33449;50.712;7.124;2023-03-14T15:52:39;5.68;;;1.77;;
46701;SDS011;33449;50.712;7.124;2023-03-14T15:55:07;5.95;;;2.20;;
46701;SDS011;33449;50.712;7.124;2023-03-14T15:57:34;5.35;;;2.78;;
46701;SDS011;33449;50.712;7.124;2023-03-14T16:00:10;8.05;;;1.90;;
46701;SDS011;33449;50.712;7.124;2023-03-14T16:02:41;6.97;;;1.35;;
46701;SDS011;33449;50.712;7.124;2023-03-14T16:05:09;7.00;;;2.67;;
46701;SDS011;33449;50.712;7.124;2023-03-14T16:07:36;6.68;;;1.77;;
46701;SDS011;33449;50.712;7.124;2023-03-14T16:10:04;7.00;;;1.92;;
46701;SDS011;33449;50.712;7.124;2023-03-14T16:12:31;5.13;;;2.33;;
46701;SDS011;33449;50.712;7.124;2023-03-14T16:15:08;8.70;;;2.78;;
46701;SDS011;33449;50.712;7.124;2023-03-14T16:17:35;3.65;;;2.28;;
46701;SDS011;33449;50.712;7.124;2023-03-14T16:20:04;8.60;;;1.73;;
46701;SDS011;33449;50.712;7.124;2023-03-14T16:22:31;7.72;;;1.90;;
46701;SDS011;33449;50.712;7.124;2023-03-14T16:25:01;7.22;;;2.13;;
46701;SDS011;33449;50.712;7.124;2023-03-14T16:30:08;5.72;;;2.22;;
46701;SDS011;33449;50.712;7.124;2023-03-14T16:32:36;7.57;;;2.10;;
46701;SDS011;33449;50.712;7.124;2023-03-14T16:35:03;8.27;;;2.95;;
46701;SDS011;33449;50.712;7.124;2023-03-14T16:37:30;8.88;;;2.42;;
46701;SDS011;33449;50.712;7.124;2023-03-14T16:39:57;11.73;;;4.00;;
46701;SDS011;33449;50.712;7.124;2023-03-14T16:42:39;13.27;;;3.30;;
46701;SDS011;33449;50.712;7.124;2023-03-14T16:45:26;6.22;;;3.35;;
46701;SDS011;33449;50.712;7.124;2023-03-14T16:48:11;7.20;;;2.38;;
46701;SDS011;33449;50.712;7.124;2023-03-14T16:50:38;6.28;;;1.92;;
46701;SDS011;33449;50.712;7.124;2023-03-14T16:53:06;8.98;;;2.47;;
46701;SDS011;33449;50.712;7.124;2023-03-14T16:58:03;5.15;;;2.65;;
46701;SDS011;33449;50.712;7.124;2023-03-14T17:03:01;11.15;;;2.50;;
46701;SDS011;33449;50.712;7.124;2023-03-14T17:05:28;14.70;;;2.67;;
46701;SDS011;33449;50.712;7.124;2023-03-14T17:07:55;14.07;;;3.00;;
46701;SDS011;33449;50.712;7.124;2023-03-14T17:10:23;13.50;;;3.00;;
46701;SDS011;33449;50.712;7.124;2023-03-14T17:12:50;14.05;;;3.03;;
46701;SDS011;33449;50.712;7.124;2023-03-14T17:15:17;14.18;;;2.70;;
46701;SDS011;33449;50.712;7.124;2023-03-14T17:17:46;14.48;;;2.63;;
46701;SDS011;33449;50.712;7.124;2023-03-14T17:20:13;19.08;;;4.40;;
46701;SDS011;33449;50.712;7.124;2023-03-14T17:22:40;12.98;;;2.85;;
46701;SDS011;33449;50.712;7.124;2023-03-14T17:25:07;11.70;;;4.32;;
46701;SDS011;33449;50.712;7.124;2023-03-14T17:27:34;11.48;;;2.40;;
46701;SDS011;33449;50.712;7.124;2023-03-14T17:30:02;11.55;;;3.70;;
46701;SDS011;33449;50.712;7.124;2023-03-14T17:32:29;13.15;;;4.00;;
46701;SDS011;33449;50.712;7.124;2023-03-14T17:34:57;18.75;;;3.05;;
46701;SDS011;33449;50.712;7.124;2023-03-14T17:37:24;12.75;;;3.10;;
46701;SDS011;33449;50.712;7.124;2023-03-14T17:39:52;15.93;;;3.67;;
46701;SDS011;33449;50.712;7.124;2023-03-14T17:42:20;13.30;;;3.03;;
46701;SDS011;33449;50.712;7.124;2023-03-14T17:45:11;18.65;;;4.30;;
46701;SDS011;33449;50.712;7.124;2023-03-14T17:47:55;16.80;;;3.50;;
46701;SDS011;33449;50.712;7.124;2023-03-14T17:50:22;17.48;;;2.83;;
46701;SDS011;33449;50.712;7.124;2023-03-14T17:52:49;16.92;;;3.15;;
46701;SDS011;33449;50.712;7.124;2023-03-14T17:55:16;14.18;;;2.80;;
46701;SDS011;33449;50.712;7.124;2023-03-14T17:57:43;17.52;;;3.78;;
46701;SDS011;33449;50.712;7.124;2023-03-14T18:00:11;15.65;;;3.25;;
46701;SDS011;33449;50.712;7.124;2023-03-14T18:02:50;7.88;;;2.55;;
46701;SDS011;33449;50.712;7.124;2023-03-14T18:05:18;13.32;;;3.05;;
46701;SDS011;33449;50.712;7.124;2023-03-14T18:07:45;21.90;;;3.38;;
46701;SDS011;33449;50.712;7.124;2023-03-14T18:10:12;13.70;;;3.03;;
46701;SDS011;33449;50.712;7.124;2023-03-14T18:12:39;11.27;;;3.03;;
46701;SDS011;33449;50.712;7.124;2023-03-14T18:15:08;7.75;;;2.35;;
46701;SDS011;33449;50.712;7.124;2023-03-14T18:17:47;8.13;;;2.95;;
46701;SDS011;33449;50.712;7.124;2023-03-14T18:20:14;14.73;;;3.20;;
46701;SDS011;33449;50.712;7.124;2023-03-14T18:22:41;16.08;;;3.13;;
46701;SDS011;33449;50.712;7.124;2023-03-14T18:25:08;17.90;;;3.65;;
46701;SDS011;33449;50.712;7.124;2023-03-14T18:27:36;13.75;;;5.93;;
46701;SDS011;33449;50.712;7.124;2023-03-14T18:30:04;14.98;;;2.70;;
46701;SDS011;33449;50.712;7.124;2023-03-14T18:32:45;16.17;;;3.88;;
46701;SDS011;33449;50.712;7.124;2023-03-14T18:35:13;9.30;;;3.88;;
46701;SDS011;33449;50.712;7.124;2023-03-14T18:37:40;11.93;;;3.50;;
46701;SDS011;33449;50.712;7.124;2023-03-14T18:40:07;15.40;;;3.40;;
46701;SDS011;33449;50.712;7.124;2023-03-14T18:42:35;12.93;;;3.13;;
46701;SDS011;33449;50.712;7.124;2023-03-14T18:45:03;17.83;;;3.22;;
46701;SDS011;33449;50.712;7.124;2023-03-14T18:50:10;11.48;;;3.45;;
46701;SDS011;33449;50.712;7.124;2023-03-14T18:52:37;11.80;;;3.20;;
46701;SDS011;33449;50.712;7.124;2023-03-14T18:55:05;10.60;;;2.78;;
46701;SDS011;33449;50.712;7.124;2023-03-14T18:57:32;9.93;;;4.13;;
46701;SDS011;33449;50.712;7.124;2023-03-14T19:00:00;19.45;;;3.45;;
46701;SDS011;33449;50.712;7.124;2023-03-14T19:02:41;14.50;;;3.30;;
46701;SDS011;33449;50.712;7.124;2023-03-14T19:05:08;6.50;;;2.08;;
46701;SDS011;33449;50.712;7.124;2023-03-14T19:07:38;10.53;;;2.97;;
46701;SDS011;33449;50.712;7.124;2023-03-14T19:10:05;10.70;;;2.53;;
46701;SDS011;33449;50.712;7.124;2023-03-14T19:12:32;8.80;;;3.28;;
46701;SDS011;33449;50.712;7.124;2023-03-14T19:17:39;15.97;;;2.60;;
46701;SDS011;33449;50.712;7.124;2023-03-14T19:20:06;12.35;;;3.33;;
46701;SDS011;33449;50.712;7.124;2023-03-14T19:22:34;12.68;;;2.70;;
46701;SDS011;33449;50.712;7.124;2023-03-14T19:25:01;8.75;;;2.80;;
46701;SDS011;33449;50.712;7.124;2023-03-14T19:27:29;13.00;;;2.65;;